Time;durP1;ratioP1;P1;durP2;ratioP2;P2;SDS_P1;SDS_P2;PMS_P1;PMS_P2;Temp;Humidity;BMP_temperature;BMP_pressure;BME280_temperature;BME280_humidity;BME280_pressure;Samples;Min_cycle;Max_cycle;Signal;HPM_P1;HPM_P2
2023/08/01 00:05:31;;;;;;;12.93;11.63;;;;;;;15.64;100.00;99841.25;6186494;23;20375;-68
2023/08/01 00:07:57;;;;;;;12.05;10.68;;;;;;;15.60;100.00;99824.66;6135466;23;20009;-68
2023/08/01 00:10:22;;;;;;;12.82;11.45;;;;;;;15.63;100.00;99823.66;6134710;23;20012;-68
2023/08/01 00:12:47;;;;;;;12.57;11.27;;;;;;;15.62;100.00;99819.34;6183602;23;20005;-68
2023/08/01 00:15:13;;;;;;;12.43;11.13;;;;;;;15.57;100.00;99814.25;6158061;23;20019;-68
2023/08/01 00:17:39;;;;;;;12.43;10.98;;;;;;;15.53;100.00;99810.94;6156829;23;20329;-69
2023/08/01 00:20:06;;;;;;;12.02;10.70;;;;;;;15.53;100.00;99805.66;6184705;23;20038;-69
2023/08/01 00:22:31;;;;;;;12.00;10.80;;;;;;;15.51;100.00;99796.94;6133845;23;20048;-70
2023/08/01 00:24:57;;;;;;;13.18;10.45;;;;;;;15.51;100.00;99807.50;6158837;23;20324;-70
2023/08/01 00:27:22;;;;;;;12.10;10.13;;;;;;;15.52;100.00;99806.56;6181939;23;20020;-70
2023/08/01 00:29:47;;;;;;;10.35;9.25;;;;;;;15.49;100.00;99811.16;6158708;23;20013;-70
2023/08/01 00:32:13;;;;;;;14.20;10.65;;;;;;;15.47;100.00;99807.72;6132109;23;20013;-69
2023/08/01 00:34:38;;;;;;;12.68;10.20;;;;;;;15.47;100.00;99813.00;6157584;23;20020;-70
2023/08/01 00:37:05;;;;;;;13.02;10.60;;;;;;;15.42;100.00;99800.03;6133694;23;20376;-70
2023/08/01 00:39:31;;;;;;;11.85;10.25;;;;;;;15.44;100.00;99805.25;6157858;23;20019;-70
2023/08/01 00:41:56;;;;;;;11.63;9.68;;;;;;;15.40;100.00;99796.59;6158532;23;20091;-69
2023/08/01 00:44:22;;;;;;;12.52;10.02;;;;;;;15.36;100.00;99802.97;6133390;23;20020;-69
2023/08/01 00:46:48;;;;;;;10.65;9.55;;;;;;;15.37;100.00;99786.19;6133715;23;20009;-71
2023/08/01 00:49:14;;;;;;;12.55;9.38;;;;;;;15.36;100.00;99795.91;6161639;23;20096;-68
2023/08/01 00:51:41;;;;;;;11.88;9.88;;;;;;;15.38;100.00;99787.91;6138355;23;20004;-67
2023/08/01 00:54:06;;;;;;;12.63;9.85;;;;;;;15.37;100.00;99796.75;6138065;23;20005;-67
2023/08/01 00:56:32;;;;;;;12.48;9.68;;;;;;;15.37;100.00;99791.47;6163053;23;20024;-68
2023/08/01 00:58:58;;;;;;;13.27;9.27;;;;;;;15.36;100.00;99789.78;6163114;23;20118;-67
2023/08/01 01:01:23;;;;;;;12.60;9.70;;;;;;;15.31;100.00;99797.06;6162901;23;20083;-68
2023/08/01 01:03:50;;;;;;;11.80;9.25;;;;;;;15.32;100.00;99802.25;6186988;23;20017;-68
2023/08/01 01:06:19;;;;;;;13.63;9.25;;;;;;;15.33;100.00;99805.75;6138878;23;20000;-68
2023/08/01 01:08:44;;;;;;;14.65;9.52;;;;;;;15.34;100.00;99797.78;6187511;23;20040;-68
2023/08/01 01:11:10;;;;;;;12.25;9.77;;;;;;;15.34;100.00;99795.13;6163169;23;20015;-67
2023/08/01 01:13:35;;;;;;;10.43;8.90;;;;;;;15.30;100.00;99787.41;6162971;23;20015;-68
2023/08/01 01:16:01;;;;;;;12.63;8.80;;;;;;;15.30;100.00;99785.66;6161481;23;20017;-67
2023/08/01 01:18:26;;;;;;;13.05;9.23;;;;;;;15.29;100.00;99788.38;6161863;23;20013;-68
2023/08/01 01:20:52;;;;;;;11.90;8.10;;;;;;;15.29;100.00;99783.09;6187668;23;20004;-68
2023/08/01 01:23:19;;;;;;;13.63;8.40;;;;;;;15.25;100.00;99785.84;6163153;23;20063;-68
2023/08/01 01:25:46;;;;;;;10.18;7.70;;;;;;;15.22;100.00;99775.44;6163321;23;20005;-68
2023/08/01 01:28:12;;;;;;;11.55;8.15;;;;;;;15.18;100.00;99779.16;6162989;23;20466;-72
2023/08/01 01:30:38;;;;;;;13.52;8.90;;;;;;;15.13;100.00;99782.94;6163056;23;20012;-72
2023/08/01 01:33:05;;;;;;;11.20;7.95;;;;;;;15.13;100.00;99788.22;6161544;23;20509;-72
2023/08/01 01:35:34;;;;;;;12.75;8.60;;;;;;;15.07;100.00;99784.13;6162669;23;20016;-72
2023/08/01 01:38:03;;;;;;;13.05;8.30;;;;;;;15.07;100.00;99786.75;6162284;23;20082;-72
2023/08/01 01:40:32;;;;;;;10.90;8.90;;;;;;;15.06;100.00;99787.69;6162543;23;20012;-72
2023/08/01 01:42:59;;;;;;;11.15;8.75;;;;;;;15.00;100.00;99782.69;6162510;23;20103;-72
2023/08/01 01:45:24;;;;;;;13.57;9.80;;;;;;;14.98;100.00;99782.75;6161552;23;20430;-72
2023/08/01 01:47:49;;;;;;;15.52;9.30;;;;;;;14.98;100.00;99781.91;6160565;23;20080;-71
2023/08/01 01:50:15;;;;;;;13.85;8.73;;;;;;;14.95;100.00;99780.25;6162462;23;20019;-72
2023/08/01 01:52:40;;;;;;;10.75;8.73;;;;;;;14.90;100.00;99780.47;6161497;23;20367;-72
2023/08/01 01:55:06;;;;;;;13.10;9.23;;;;;;;14.89;100.00;99781.38;6162385;23;20017;-72
2023/08/01 01:57:32;;;;;;;13.43;9.90;;;;;;;14.87;100.00;99772.72;6187142;23;20396;-72
2023/08/01 01:59:57;;;;;;;12.15;8.32;;;;;;;14.84;100.00;99777.25;6162766;23;20040;-72
2023/08/01 02:02:22;;;;;;;12.68;9.07;;;;;;;14.83;100.00;99776.41;6161396;23;20410;-72
2023/08/01 02:04:50;;;;;;;13.30;8.68;;;;;;;14.85;100.00;99776.34;6162173;23;20016;-72
2023/08/01 02:07:16;;;;;;;13.25;8.88;;;;;;;14.84;100.00;99769.34;6186877;23;20004;-72
2023/08/01 02:09:41;;;;;;;15.90;9.10;;;;;;;14.84;100.00;99772.84;6186441;23;20019;-72
2023/08/01 02:12:09;;;;;;;15.07;9.25;;;;;;;14.81;100.00;99777.41;6162615;23;20032;-72
2023/08/01 02:14:36;;;;;;;13.40;9.55;;;;;;;14.78;100.00;99767.84;6162064;23;20116;-72
2023/08/01 02:17:02;;;;;;;15.48;10.30;;;;;;;14.75;100.00;99770.63;6162057;23;20021;-70
2023/08/01 02:19:27;;;;;;;15.48;10.27;;;;;;;14.74;100.00;99768.94;6161737;23;20051;-70
2023/08/01 02:21:54;;;;;;;16.40;10.80;;;;;;;14.71;100.00;99766.41;6161935;23;20013;-70
2023/08/01 02:24:19;;;;;;;15.70;10.13;;;;;;;14.68;100.00;99772.72;6161514;23;20004;-70
2023/08/01 02:26:45;;;;;;;16.80;10.70;;;;;;;14.65;100.00;99777.25;6162224;23;20035;-70
2023/08/01 02:29:11;;;;;;;14.85;10.05;;;;;;;14.62;100.00;99780.03;6161787;23;20019;-70
2023/08/01 02:31:37;;;;;;;13.98;9.60;;;;;;;14.63;100.00;99779.13;6137541;23;20046;-70
2023/08/01 02:34:02;;;;;;;19.48;10.80;;;;;;;14.60;100.00;99777.44;6161808;23;20445;-70
2023/08/01 02:36:27;;;;;;;15.88;10.35;;;;;;;14.57;100.00;99788.13;6186670;23;20009;-70
2023/08/01 02:38:53;;;;;;;20.50;10.55;;;;;;;14.56;100.00;99781.13;6137852;23;20015;-70
2023/08/01 02:41:18;;;;;;;16.63;10.45;;;;;;;14.54;100.00;99789.13;6162025;23;20012;-70
2023/08/01 02:43:44;;;;;;;16.00;11.15;;;;;;;14.53;100.00;99779.50;6162592;23;20375;-70
2023/08/01 02:46:10;;;;;;;17.08;12.00;;;;;;;14.51;100.00;99784.00;6160637;23;20008;-70
2023/08/01 02:48:35;;;;;;;15.20;10.45;;;;;;;14.53;100.00;99781.28;6161162;23;20095;-70
2023/08/01 02:51:01;;;;;;;19.38;11.80;;;;;;;14.54;100.00;99791.75;6137308;23;20309;-70
2023/08/01 02:53:27;;;;;;;17.63;12.20;;;;;;;14.53;100.00;99790.03;6138301;23;20020;-70
2023/08/01 02:55:52;;;;;;;15.65;11.65;;;;;;;14.53;100.00;99794.47;6162038;23;20342;-70
2023/08/01 02:58:18;;;;;;;20.20;12.25;;;;;;;14.53;100.00;99790.03;6137830;23;20056;-70
2023/08/01 03:00:43;;;;;;;19.15;12.63;;;;;;;14.49;100.00;99793.72;6160868;23;20016;-70
2023/08/01 03:03:12;;;;;;;21.80;12.55;;;;;;;14.48;100.00;99797.31;6159325;23;20242;-70
2023/08/01 03:05:37;;;;;;;16.77;12.50;;;;;;;14.48;100.00;99792.03;6132669;23;20058;-70
2023/08/01 03:08:04;;;;;;;21.83;14.25;;;;;;;14.50;100.00;99798.09;6162102;23;20021;-70
2023/08/01 03:10:29;;;;;;;19.33;14.15;;;;;;;14.49;100.00;99793.72;6162544;23;20005;-70
2023/08/01 03:12:55;;;;;;;20.80;15.52;;;;;;;14.51;100.00;99786.63;6186562;23;20023;-70
2023/08/01 03:15:20;;;;;;;21.00;16.20;;;;;;;14.48;100.00;99789.41;6185763;23;20407;-70
2023/08/01 03:17:46;;;;;;;19.77;15.73;;;;;;;14.47;100.00;99785.03;6161013;23;20008;-70
2023/08/01 03:20:12;;;;;;;17.88;15.98;;;;;;;14.45;100.00;99779.00;6137764;23;20017;-70
2023/08/01 03:22:41;;;;;;;22.00;16.88;;;;;;;14.44;100.00;99782.56;6160725;23;20012;-70
2023/08/01 03:25:07;;;;;;;22.52;17.55;;;;;;;14.46;100.00;99787.75;6162058;23;20063;-70
2023/08/01 03:27:34;;;;;;;24.48;17.77;;;;;;;14.43;100.00;99788.75;6161458;23;20020;-71
2023/08/01 03:29:59;;;;;;;28.08;18.38;;;;;;;14.45;100.00;99791.31;6161931;23;20009;-70
2023/08/01 03:32:25;;;;;;;28.70;18.50;;;;;;;14.44;100.00;99787.81;6184211;23;20015;-70
2023/08/01 03:34:50;;;;;;;20.73;17.15;;;;;;;14.46;100.00;99793.03;6162173;23;20316;-70
2023/08/01 03:37:16;;;;;;;22.13;17.73;;;;;;;14.45;100.00;99797.44;6138207;23;20042;-70
2023/08/01 03:39:42;;;;;;;23.83;18.17;;;;;;;14.44;100.00;99795.72;6188647;23;20012;-70
2023/08/01 03:42:07;;;;;;;22.60;18.90;;;;;;;14.45;100.00;99794.81;6163559;23;20411;-70
2023/08/01 03:44:33;;;;;;;22.27;18.00;;;;;;;14.46;100.00;99788.59;6163239;23;20430;-70
2023/08/01 03:46:59;;;;;;;21.75;18.35;;;;;;;14.46;100.00;99796.50;6187020;23;20017;-71
2023/08/01 03:49:24;;;;;;;24.20;18.60;;;;;;;14.44;100.00;99794.84;6162620;23;20016;-70
2023/08/01 03:51:50;;;;;;;23.65;19.38;;;;;;;14.46;100.00;99793.88;6163913;23;20013;-70
2023/08/01 03:54:16;;;;;;;23.88;19.90;;;;;;;14.44;100.00;99785.19;6162855;23;20012;-70
2023/08/01 03:56:43;;;;;;;26.25;20.10;;;;;;;14.46;100.00;99796.50;6187546;23;20342;-72
2023/08/01 03:59:11;;;;;;;30.88;21.23;;;;;;;14.43;100.00;99794.00;6139240;23;20009;-71
2023/08/01 04:01:36;;;;;;;26.90;21.08;;;;;;;14.46;100.00;99796.50;6187325;23;20004;-72
2023/08/01 04:04:02;;;;;;;25.83;20.88;;;;;;;14.48;100.00;99792.03;6162623;23;20011;-72
2023/08/01 04:06:27;;;;;;;28.13;21.83;;;;;;;14.50;100.00;99794.59;6188271;23;20051;-72
2023/08/01 04:08:53;;;;;;;27.30;22.50;;;;;;;14.50;100.00;99799.88;6163577;23;20020;-72
2023/08/01 04:11:19;;;;;;;28.35;22.88;;;;;;;14.51;100.00;99806.84;6189029;23;20176;-72
2023/08/01 04:13:44;;;;;;;28.30;21.90;;;;;;;14.49;100.00;99800.78;6163359;23;20088;-72
2023/08/01 04:16:10;;;;;;;33.50;22.52;;;;;;;14.49;100.00;99798.16;6161606;23;20070;-71
2023/08/01 04:18:35;;;;;;;28.02;21.58;;;;;;;14.51;100.00;99799.81;6160303;23;20087;-72
2023/08/01 04:21:00;;;;;;;25.65;21.92;;;;;;;14.50;100.00;99798.09;6138654;23;20091;-72
2023/08/01 04:23:26;;;;;;;26.45;21.88;;;;;;;14.49;100.00;99796.38;6162601;23;20083;-71
2023/08/01 04:25:51;;;;;;;32.05;23.30;;;;;;;14.52;100.00;99798.88;6137754;23;20457;-72
2023/08/01 04:28:17;;;;;;;31.88;22.48;;;;;;;14.51;100.00;99799.81;6160922;23;20019;-72
2023/08/01 04:30:48;;;;;;;27.40;22.80;;;;;;;14.52;100.00;99796.25;6137023;23;20427;-72
2023/08/01 04:33:14;;;;;;;29.23;22.20;;;;;;;14.51;100.00;99799.81;6161658;23;20004;-71
2023/08/01 04:35:39;;;;;;;27.60;23.27;;;;;;;14.54;100.00;99798.81;6161457;23;20091;-71
2023/08/01 04:38:05;;;;;;;32.60;23.45;;;;;;;14.55;100.00;99793.47;6137259;23;20081;-71
2023/08/01 04:40:30;;;;;;;30.15;22.40;;;;;;;14.51;100.00;99791.91;6160929;23;20439;-71
2023/08/01 04:42:56;;;;;;;28.95;21.45;;;;;;;14.57;100.00;99798.69;6187596;23;20338;-70
2023/08/01 04:45:21;;;;;;;31.38;24.33;;;;;;;14.58;100.00;99802.16;6160392;23;20528;-70
2023/08/01 04:47:46;;;;;;;30.30;23.60;;;;;;;14.58;100.00;99803.00;6158553;23;20028;-70
2023/08/01 04:50:12;;;;;;;29.92;24.08;;;;;;;14.59;100.00;99801.25;6186787;23;20404;-70
2023/08/01 04:52:37;;;;;;;29.90;22.45;;;;;;;14.55;100.00;99803.16;6162468;23;20012;-70
2023/08/01 04:55:03;;;;;;;31.83;23.88;;;;;;;14.62;100.00;99812.53;6137898;23;20020;-70
2023/08/01 04:57:29;;;;;;;34.42;23.33;;;;;;;14.67;100.00;99814.97;6162496;23;20012;-70
2023/08/01 04:59:54;;;;;;;32.63;24.23;;;;;;;14.72;100.00;99820.88;6137014;23;20013;-68
2023/08/01 05:02:19;;;;;;;30.88;23.65;;;;;;;14.78;100.00;99825.88;6159392;23;20015;-68
2023/08/01 05:04:45;;;;;;;28.55;23.88;;;;;;;14.79;100.00;99814.41;6162205;23;20031;-68
2023/08/01 05:07:10;;;;;;;31.42;24.23;;;;;;;14.81;100.00;99815.19;6137191;23;20594;-68
2023/08/01 05:09:36;;;;;;;30.75;23.23;;;;;;;14.83;100.00;99818.63;6138051;23;20108;-67
2023/08/01 05:12:01;;;;;;;26.52;22.50;;;;;;;14.84;100.00;99822.97;6160054;23;20017;-68
2023/08/01 05:14:27;;;;;;;27.30;21.65;;;;;;;14.86;100.00;99817.63;6185992;23;20019;-67
2023/08/01 05:16:53;;;;;;;28.17;22.17;;;;;;;14.82;100.00;99816.03;6161299;23;20016;-68
2023/08/01 05:19:18;;;;;;;24.83;21.45;;;;;;;14.81;100.00;99820.47;6161143;23;20013;-68
2023/08/01 05:21:44;;;;;;;26.33;22.02;;;;;;;14.77;100.00;99818.03;6137890;23;20015;-68
2023/08/01 05:24:09;;;;;;;31.95;23.75;;;;;;;14.74;100.00;99824.31;6161759;23;20345;-67
2023/08/01 05:26:36;;;;;;;27.58;23.08;;;;;;;14.73;100.00;99825.22;6161052;23;20448;-68
2023/08/01 05:29:03;;;;;;;29.17;23.10;;;;;;;14.75;100.00;99826.00;6161606;23;20008;-68
2023/08/01 05:31:29;;;;;;;30.42;23.35;;;;;;;14.78;100.00;99823.22;6160702;23;20015;-68
2023/08/01 05:33:54;;;;;;;28.02;23.20;;;;;;;14.86;100.00;99828.16;6184493;23;20087;-68
2023/08/01 05:36:20;;;;;;;25.95;22.50;;;;;;;15.09;100.00;99828.91;6137461;23;20390;-69
2023/08/01 05:38:45;;;;;;;25.48;22.48;;;;;;;15.50;100.00;99829.56;6161358;23;20389;-69
2023/08/01 05:41:10;;;;;;;26.20;20.55;;;;;;;16.20;100.00;99829.63;6187344;23;20008;-69
2023/08/01 05:43:36;;;;;;;20.58;17.92;;;;;;;16.16;100.00;99827.22;6159216;23;20031;-69
2023/08/01 05:46:01;;;;;;;19.60;16.15;;;;;;;16.31;100.00;99830.91;6158930;23;20012;-68
2023/08/01 05:48:27;;;;;;;24.17;17.35;;;;;;;16.09;100.00;99837.25;6135250;23;20066;-68
2023/08/01 05:50:55;;;;;;;20.45;16.33;;;;;;;15.83;100.00;99830.66;6136398;23;20027;-68
2023/08/01 05:53:20;;;;;;;21.98;17.17;;;;;;;15.62;100.00;99833.38;6138789;23;20069;-68
2023/08/01 05:55:46;;;;;;;20.73;16.77;;;;;;;15.50;100.00;99832.22;6159088;23;20087;-68
2023/08/01 05:58:11;;;;;;;20.35;18.15;;;;;;;15.46;100.00;99830.66;6137805;23;20044;-68
2023/08/01 06:00:37;;;;;;;28.40;18.90;;;;;;;15.44;100.00;99839.56;6136725;23;20018;-68
2023/08/01 06:03:03;;;;;;;26.30;18.77;;;;;;;15.57;100.00;99841.53;6160713;23;20059;-68
2023/08/01 06:05:28;;;;;;;23.88;19.00;;;;;;;15.59;100.00;99841.47;6137072;23;20035;-68
2023/08/01 06:07:54;;;;;;;23.02;18.48;;;;;;;15.59;100.00;99850.22;6158617;23;20066;-68
2023/08/01 06:10:19;;;;;;;26.77;19.27;;;;;;;15.51;100.00;99840.97;6136063;23;20039;-68
2023/08/01 06:12:45;;;;;;;24.15;18.52;;;;;;;15.53;100.00;99845.25;6137118;23;20018;-68
2023/08/01 06:15:10;;;;;;;24.55;17.60;;;;;;;15.67;100.00;99846.38;6162105;23;20013;-68
2023/08/01 06:17:36;;;;;;;22.58;18.05;;;;;;;15.59;100.00;99852.88;6135583;23;20070;-68
2023/08/01 06:20:04;;;;;;;26.00;17.13;;;;;;;15.61;100.00;99855.44;6162423;23;20008;-68
2023/08/01 06:22:30;;;;;;;21.52;17.92;;;;;;;15.90;100.00;99862.00;6162976;23;20017;-68
2023/08/01 06:24:55;;;;;;;18.85;16.27;;;;;;;16.52;100.00;99856.22;6137287;23;20016;-68
2023/08/01 06:27:21;;;;;;;21.38;15.30;;;;;;;16.60;100.00;99864.59;6186294;23;20016;-68
2023/08/01 06:29:47;;;;;;;20.13;15.50;;;;;;;16.68;100.00;99858.03;6161221;23;20008;-68
2023/08/01 06:32:12;;;;;;;21.75;15.70;;;;;;;16.53;100.00;99863.19;6212058;23;20000;-68
2023/08/01 06:34:38;;;;;;;17.48;13.85;;;;;;;16.32;100.00;99853.72;6161023;23;20016;-68
2023/08/01 06:37:03;;;;;;;20.35;14.38;;;;;;;16.23;100.00;99858.59;6160329;23;20016;-68
2023/08/01 06:39:30;;;;;;;17.38;12.65;;;;;;;16.08;100.00;99854.06;6136034;23;20062;-68
2023/08/01 06:41:55;;;;;;;16.75;13.10;;;;;;;16.13;100.00;99853.81;6186146;23;20070;-68
2023/08/01 06:44:21;;;;;;;14.73;12.45;;;;;;;17.49;100.00;99863.38;6186715;23;20438;-68
2023/08/01 06:46:46;;;;;;;15.20;12.05;;;;;;;19.33;93.49;99850.66;6184446;23;19997;-68
2023/08/01 06:49:12;;;;;;;17.67;10.75;;;;;;;19.89;85.60;99863.03;6159631;23;20025;-67
2023/08/01 06:51:37;;;;;;;13.18;8.70;;;;;;;19.59;84.12;99866.72;6186327;23;20008;-68
2023/08/01 06:54:02;;;;;;;13.95;8.95;;;;;;;19.09;85.12;99862.84;6161788;23;20008;-68
2023/08/01 06:56:28;;;;;;;14.55;9.30;;;;;;;18.51;86.13;99879.56;6136663;23;20346;-68
2023/08/01 06:58:53;;;;;;;13.57;9.75;;;;;;;18.43;88.61;99876.56;6160880;23;20026;-68
2023/08/01 07:01:19;;;;;;;15.70;10.13;;;;;;;18.62;90.86;99881.59;6136833;23;20116;-68
2023/08/01 07:03:45;;;;;;;15.48;11.20;;;;;;;19.35;89.95;99891.28;6159973;23;20050;-68
2023/08/01 07:06:11;;;;;;;13.65;9.63;;;;;;;19.14;87.99;99879.34;6184774;23;20412;-68
2023/08/01 07:08:39;;;;;;;16.67;10.10;;;;;;;18.65;85.74;99889.38;6186417;23;20132;-68
2023/08/01 07:11:05;;;;;;;15.10;10.38;;;;;;;18.55;88.50;99884.69;6185731;23;20501;-68
2023/08/01 07:13:30;;;;;;;13.85;10.38;;;;;;;18.79;92.32;99885.88;6161184;23;20091;-68
2023/08/01 07:15:55;;;;;;;12.82;9.63;;;;;;;18.89;88.52;99883.53;6161812;23;20078;-69
2023/08/01 07:18:21;;;;;;;15.27;8.40;;;;;;;18.88;84.16;99881.84;6161679;23;20670;-69
2023/08/01 07:20:46;;;;;;;13.50;8.40;;;;;;;18.70;85.71;99897.03;6137426;23;20016;-68
2023/08/01 07:23:12;;;;;;;12.25;7.90;;;;;;;18.37;87.74;99897.28;6163074;23;20478;-68
2023/08/01 07:25:37;;;;;;;13.05;7.90;;;;;;;18.08;87.54;99892.72;6162930;23;20008;-67
2023/08/01 07:28:03;;;;;;;11.90;7.13;;;;;;;17.89;87.62;99898.22;6162950;23;20434;-68
2023/08/01 07:30:29;;;;;;;11.20;7.43;;;;;;;18.06;90.45;99886.69;6161932;23;20505;-68
2023/08/01 07:32:54;;;;;;;11.35;7.45;;;;;;;18.02;87.66;99895.75;6160683;23;20067;-68
2023/08/01 07:35:19;;;;;;;14.50;7.60;;;;;;;18.02;87.50;99885.16;6163703;23;20012;-70
2023/08/01 07:37:45;;;;;;;16.42;7.43;;;;;;;17.99;87.65;99883.50;6138499;23;20016;-70
2023/08/01 07:40:13;;;;;;;12.10;7.65;;;;;;;17.84;87.82;99879.94;6138657;23;20016;-71
2023/08/01 07:42:39;;;;;;;11.07;8.05;;;;;;;17.79;89.42;99884.63;6185703;23;20027;-70
2023/08/01 07:45:05;;;;;;;10.10;7.30;;;;;;;17.83;91.09;99887.97;6161796;23;20015;-70
2023/08/01 07:47:30;;;;;;;12.13;7.32;;;;;;;17.92;92.13;99895.41;6135709;23;20393;-71
2023/08/01 07:49:56;;;;;;;11.27;7.45;;;;;;;18.04;90.45;99895.66;6162529;23;20008;-71
2023/08/01 07:52:21;;;;;;;12.23;7.40;;;;;;;18.05;90.65;99898.22;6162550;23;20096;-71
2023/08/01 07:54:47;;;;;;;11.00;6.63;;;;;;;17.86;89.95;99893.09;6188045;23;20292;-71
2023/08/01 07:57:15;;;;;;;11.60;6.10;;;;;;;17.80;90.71;99888.13;6162334;23;20013;-71
2023/08/01 07:59:43;;;;;;;10.80;6.38;;;;;;;17.74;89.80;99891.13;6162436;23;20056;-71
2023/08/01 08:02:08;;;;;;;13.73;6.32;;;;;;;17.71;91.18;99886.00;6162095;23;20005;-71
2023/08/01 08:04:34;;;;;;;10.43;6.63;;;;;;;17.56;90.82;99885.94;6184574;23;20059;-71
2023/08/01 08:06:59;;;;;;;10.85;6.10;;;;;;;17.43;89.80;99892.88;6162988;23;20008;-71
2023/08/01 08:09:26;;;;;;;12.77;6.53;;;;;;;17.46;90.69;99890.03;6162865;23;20067;-71
2023/08/01 08:11:52;;;;;;;10.80;6.47;;;;;;;17.67;91.67;99894.13;6163627;23;20442;-71
2023/08/01 08:14:17;;;;;;;9.23;5.80;;;;;;;17.87;91.22;99896.59;6163267;23;20043;-71
2023/08/01 08:16:43;;;;;;;10.95;5.70;;;;;;;18.01;88.05;99894.03;6162436;23;20445;-71
2023/08/01 08:19:09;;;;;;;10.27;5.55;;;;;;;18.25;89.28;99902.34;6185475;23;20008;-71
2023/08/01 08:21:34;;;;;;;10.85;4.72;;;;;;;18.47;86.46;99893.13;6188471;23;20016;-72
2023/08/01 08:24:00;;;;;;;7.63;3.80;;;;;;;18.58;84.87;99893.34;6161819;23;20004;-71
2023/08/01 08:26:25;;;;;;;6.70;3.33;;;;;;;18.61;83.59;99894.97;6161108;23;20031;-71
2023/08/01 08:28:51;;;;;;;10.30;4.40;;;;;;;18.48;84.29;99894.84;6161582;23;20019;-71
2023/08/01 08:31:16;;;;;;;11.85;4.35;;;;;;;18.39;85.57;99903.31;6162694;23;20103;-71
2023/08/01 08:33:42;;;;;;;9.30;4.22;;;;;;;18.49;83.63;99891.25;6161353;23;20012;-71
2023/08/01 08:36:07;;;;;;;8.05;4.13;;;;;;;18.50;85.83;99890.28;6187444;23;20366;-71
2023/08/01 08:38:32;;;;;;;9.07;3.90;;;;;;;18.68;85.95;99891.81;6137855;23;20028;-72
2023/08/01 08:41:13;;;;;;;9.07;4.28;;;;;;;18.80;84.06;99890.22;6162789;23;20008;-70
2023/08/01 08:43:39;;;;;;;;;;;;;;;19.08;85.43;99906.28;6186669;23;20008;-69
2023/08/01 08:46:05;;;;;;;8.05;4.32;;;;;;;18.87;83.71;99917.28;6187537;23;19904;-71
2023/08/01 08:48:32;;;;;;;9.15;3.83;;;;;;;18.80;83.55;99910.59;6161509;23;20031;-71
2023/08/01 08:50:59;;;;;;;11.15;4.07;;;;;;;18.63;81.88;99901.00;6186726;23;20020;-71
2023/08/01 08:53:25;;;;;;;8.32;3.28;;;;;;;18.44;83.00;99917.19;6161731;23;20028;-71
2023/08/01 08:55:51;;;;;;;9.25;3.70;;;;;;;18.30;82.36;99910.91;6161035;23;20040;-71
2023/08/01 08:58:18;;;;;;;5.85;3.70;;;;;;;18.11;84.20;99919.06;6161860;23;20036;-71
2023/08/01 09:00:44;;;;;;;7.07;4.25;;;;;;;18.14;86.09;99918.03;6185653;23;20083;-71
2023/08/01 09:03:10;;;;;;;8.00;4.25;;;;;;;17.93;86.05;99926.28;6159268;23;20019;-71
2023/08/01 09:06:10;;;;;;;8.27;3.95;;;;;;;17.95;88.41;99931.50;6185289;23;20411;-71
2023/08/01 09:08:37;;;;;;;8.95;3.90;;;;;;;17.78;89.29;99916.53;6176110;23;20369;-71
2023/08/01 09:11:04;;;;;;;7.47;3.63;;;;;;;17.54;86.92;99924.91;6162428;23;20008;-71
2023/08/01 09:13:30;;;;;;;6.15;3.58;;;;;;;17.55;89.23;99929.25;6186138;23;20514;-71
2023/08/01 09:15:56;;;;;;;7.13;3.83;;;;;;;17.48;91.10;99920.81;6159930;23;20092;-71
2023/08/01 09:18:21;;;;;;;5.82;3.25;;;;;;;17.50;91.54;99920.72;6136922;23;20016;-69
2023/08/01 09:20:49;;;;;;;5.60;3.10;;;;;;;17.51;90.95;99929.50;6162096;23;20059;-68
2023/08/01 09:23:16;;;;;;;6.97;2.78;;;;;;;17.43;88.90;99936.09;6187483;23;20107;-68
2023/08/01 09:25:43;;;;;;;7.72;3.40;;;;;;;17.53;89.26;99931.16;6163028;23;20008;-68
2023/08/01 09:28:23;;;;;;;4.45;2.20;;;;;;;17.57;87.49;99939.75;6187361;23;20066;-67
2023/08/01 09:30:56;;;;;;;7.20;2.75;;;;;;;17.60;87.09;99942.25;6186026;23;20315;-68
2023/08/01 09:33:22;;;;;;;7.53;3.03;;;;;;;17.69;87.56;99941.75;6186354;23;20019;-68
2023/08/01 09:35:51;;;;;;;7.30;3.45;;;;;;;17.76;87.84;99950.22;6187811;23;20087;-68
2023/08/01 09:38:17;;;;;;;7.88;3.28;;;;;;;17.82;85.65;99947.22;6187677;23;20004;-68
2023/08/01 09:40:44;;;;;;;6.57;3.10;;;;;;;17.95;88.49;99945.59;6138743;23;20074;-68
2023/08/01 09:43:12;;;;;;;6.65;3.08;;;;;;;18.09;88.94;99955.41;6188190;23;20043;-68
2023/08/01 09:45:37;;;;;;;8.65;3.50;;;;;;;18.15;88.05;99949.75;6162789;23;20381;-68
2023/08/01 09:48:03;;;;;;;9.07;3.75;;;;;;;18.04;86.69;99948.66;6160558;23;20020;-69
2023/08/01 09:50:29;;;;;;;9.73;3.50;;;;;;;17.95;85.91;99955.34;6138332;23;20009;-70
2023/08/01 09:52:55;;;;;;;7.00;3.40;;;;;;;17.79;86.23;99950.03;6187981;23;20303;-69
2023/08/01 09:55:32;;;;;;;6.90;3.08;;;;;;;17.82;87.58;99952.50;6162455;23;20019;-69
2023/08/01 09:57:59;;;;;;;8.77;3.22;;;;;;;17.58;84.39;99958.22;6185752;23;20374;-69
2023/08/01 10:00:29;;;;;;;8.48;3.38;;;;;;;17.47;84.70;99955.31;6187186;23;20541;-69
2023/08/01 10:03:01;;;;;;;9.40;3.10;;;;;;;17.42;85.62;99967.94;6183810;23;20009;-69
2023/08/01 10:05:30;;;;;;;11.10;3.33;;;;;;;17.46;86.64;99966.84;6186711;23;20001;-70
2023/08/01 10:07:59;;;;;;;7.57;3.10;;;;;;;17.49;89.26;99969.31;6161697;23;20104;-70
2023/08/01 10:10:25;;;;;;;6.50;2.78;;;;;;;17.46;87.80;99973.00;6187745;23;20078;-68
2023/08/01 10:12:51;;;;;;;6.65;2.80;;;;;;;17.44;89.26;99972.22;6162341;23;20020;-69
2023/08/01 10:15:18;;;;;;;7.10;2.95;;;;;;;17.51;88.57;99972.72;6161170;23;20005;-68
2023/08/01 10:17:44;;;;;;;7.82;2.90;;;;;;;17.68;88.48;99974.47;6182905;23;20099;-68
2023/08/01 10:20:12;;;;;;;7.28;3.00;;;;;;;17.63;86.90;99976.53;6158977;23;20086;-68
2023/08/01 10:22:39;;;;;;;9.65;3.50;;;;;;;17.83;88.04;99972.78;6187162;23;20043;-68
2023/08/01 10:25:05;;;;;;;8.02;3.35;;;;;;;17.92;86.39;99968.78;6163025;23;20374;-68
2023/08/01 10:27:30;;;;;;;9.32;3.42;;;;;;;18.13;86.48;99969.34;6138591;23;20024;-68
2023/08/01 10:30:00;;;;;;;9.35;4.10;;;;;;;18.23;85.66;99977.63;6138360;23;20032;-68
2023/08/01 10:32:33;;;;;;;10.10;3.83;;;;;;;18.30;87.56;99971.91;6185887;23;20008;-68
2023/08/01 10:34:58;;;;;;;8.20;3.35;;;;;;;18.43;85.97;99979.13;6186683;23;20012;-68
2023/08/01 10:37:24;;;;;;;11.80;4.03;;;;;;;18.41;84.33;99981.88;6160486;23;20013;-68
2023/08/01 10:40:00;;;;;;;8.80;3.15;;;;;;;18.38;84.61;99986.53;6162890;23;20051;-68
2023/08/01 10:42:26;;;;;;;6.55;3.50;;;;;;;18.18;84.58;99985.84;6186753;23;20392;-68
2023/08/01 10:44:51;;;;;;;10.30;4.20;;;;;;;18.08;86.56;99969.59;6164617;23;20066;-68
2023/08/01 10:47:27;;;;;;;11.10;3.80;;;;;;;18.06;87.72;99978.59;6163454;23;20009;-68
2023/08/01 10:49:52;;;;;;;10.40;3.60;;;;;;;17.95;85.65;99976.56;6163743;23;20021;-69
2023/08/01 10:52:24;;;;;;;8.48;3.90;;;;;;;17.88;86.22;99978.66;6163794;23;20009;-69
2023/08/01 10:55:04;;;;;;;9.18;3.28;;;;;;;17.90;86.25;99989.16;6186745;23;20070;-69
2023/08/01 10:57:31;;;;;;;8.15;3.22;;;;;;;17.88;86.06;99986.59;6185883;23;20008;-69
2023/08/01 10:59:58;;;;;;;10.77;3.30;;;;;;;17.86;83.80;99996.44;6162258;23;20009;-70
2023/08/01 11:02:26;;;;;;;8.65;2.88;;;;;;;17.96;85.98;99991.53;6162174;23;20638;-69
2023/08/01 11:04:59;;;;;;;7.63;2.80;;;;;;;18.06;83.58;99989.19;6163393;23;20099;-68
2023/08/01 11:07:24;;;;;;;8.75;3.50;;;;;;;18.21;82.12;99990.97;6139444;23;20015;-68
2023/08/01 11:10:05;;;;;;;7.38;3.05;;;;;;;18.55;85.40;99989.03;6164049;23;20004;-68
2023/08/01 11:12:33;;;;;;;;;;;;;;;18.66;82.97;99994.56;6189523;23;20032;-69
2023/08/01 11:15:02;;;;;;;8.02;3.10;;;;;;;18.51;82.88;100000.75;6187898;23;19915;-68
2023/08/01 11:17:28;;;;;;;6.82;2.85;;;;;;;18.59;82.40;99997.66;6161491;23;20047;-68
2023/08/01 11:20:01;;;;;;;8.15;3.00;;;;;;;18.84;81.41;99997.06;6163472;23;20012;-68